sensor_id;sensor_type;location;lat;lon;timestamp;P1;durP1;ratioP1;P2;durP2;ratioP2
75073;SDS011;63652;51.526;5.080;2024-03-22T00:00:01;38.22;;;15.00;;
75073;SDS011;63652;51.526;5.080;2024-03-22T00:02:26;50.13;;;17.98;;
75073;SDS011;63652;51.526;5.080;2024-03-22T00:04:51;40.28;;;17.25;;
75073;SDS011;63652;51.526;5.080;2024-03-22T00:07:17;41.72;;;17.70;;
75073;SDS011;63652;51.526;5.080;2024-03-22T00:09:42;48.80;;;18.98;;
75073;SDS011;63652;51.526;5.080;2024-03-22T00:12:07;42.92;;;17.77;;
75073;SDS011;63652;51.526;5.080;2024-03-22T00:14:33;42.40;;;17.75;;
75073;SDS011;63652;51.526;5.080;2024-03-22T00:16:58;44.53;;;16.73;;
75073;SDS011;63652;51.526;5.080;2024-03-22T00:19:24;51.17;;;18.13;;
75073;SDS011;63652;51.526;5.080;2024-03-22T00:21:49;54.20;;;18.17;;
75073;SDS011;63652;51.526;5.080;2024-03-22T00:24:15;43.88;;;17.70;;
75073;SDS011;63652;51.526;5.080;2024-03-22T00:26:40;44.83;;;19.48;;
75073;SDS011;63652;51.526;5.080;2024-03-22T00:29:08;46.38;;;19.70;;
75073;SDS011;63652;51.526;5.080;2024-03-22T00:31:36;47.45;;;18.48;;
75073;SDS011;63652;51.526;5.080;2024-03-22T00:34:04;49.08;;;19.70;;
75073;SDS011;63652;51.526;5.080;2024-03-22T00:36:29;48.42;;;19.98;;
75073;SDS011;63652;51.526;5.080;2024-03-22T00:38:55;48.08;;;17.50;;
75073;SDS011;63652;51.526;5.080;2024-03-22T00:41:20;43.45;;;16.38;;
75073;SDS011;63652;51.526;5.080;2024-03-22T00:43:45;42.60;;;16.77;;
75073;SDS011;63652;51.526;5.080;2024-03-22T00:46:11;44.85;;;17.83;;
75073;SDS011;63652;51.526;5.080;2024-03-22T00:48:36;46.25;;;17.40;;
75073;SDS011;63652;51.526;5.080;2024-03-22T00:51:02;46.22;;;19.65;;
75073;SDS011;63652;51.526;5.080;2024-03-22T00:53:28;45.50;;;18.65;;
75073;SDS011;63652;51.526;5.080;2024-03-22T00:55:55;44.30;;;17.95;;
75073;SDS011;63652;51.526;5.080;2024-03-22T00:58:21;43.78;;;17.88;;
75073;SDS011;63652;51.526;5.080;2024-03-22T01:00:46;42.85;;;17.95;;
75073;SDS011;63652;51.526;5.080;2024-03-22T01:03:12;44.33;;;18.23;;
75073;SDS011;63652;51.526;5.080;2024-03-22T01:05:37;48.58;;;18.98;;
75073;SDS011;63652;51.526;5.080;2024-03-22T01:08:03;43.70;;;17.40;;
75073;SDS011;63652;51.526;5.080;2024-03-22T01:10:30;43.17;;;17.88;;
75073;SDS011;63652;51.526;5.080;2024-03-22T01:12:55;46.88;;;19.67;;
75073;SDS011;63652;51.526;5.080;2024-03-22T01:15:20;44.42;;;17.02;;
75073;SDS011;63652;51.526;5.080;2024-03-22T01:17:46;52.55;;;20.00;;
75073;SDS011;63652;51.526;5.080;2024-03-22T01:20:11;47.22;;;17.77;;
75073;SDS011;63652;51.526;5.080;2024-03-22T01:22:37;44.88;;;17.98;;
75073;SDS011;63652;51.526;5.080;2024-03-22T01:25:05;44.53;;;17.00;;
75073;SDS011;63652;51.526;5.080;2024-03-22T01:27:34;44.88;;;18.33;;
75073;SDS011;63652;51.526;5.080;2024-03-22T01:30:00;39.90;;;16.67;;
75073;SDS011;63652;51.526;5.080;2024-03-22T01:32:25;42.10;;;16.30;;
75073;SDS011;63652;51.526;5.080;2024-03-22T01:34:50;43.42;;;17.17;;
75073;SDS011;63652;51.526;5.080;2024-03-22T01:37:16;40.22;;;16.90;;
75073;SDS011;63652;51.526;5.080;2024-03-22T01:39:41;43.08;;;17.38;;
75073;SDS011;63652;51.526;5.080;2024-03-22T01:42:07;42.75;;;18.27;;
75073;SDS011;63652;51.526;5.080;2024-03-22T01:44:34;40.42;;;17.13;;
75073;SDS011;63652;51.526;5.080;2024-03-22T01:47:02;45.38;;;19.48;;
75073;SDS011;63652;51.526;5.080;2024-03-22T01:49:27;42.35;;;16.58;;
75073;SDS011;63652;51.526;5.080;2024-03-22T01:51:53;39.08;;;17.42;;
75073;SDS011;63652;51.526;5.080;2024-03-22T01:54:19;41.55;;;16.95;;
75073;SDS011;63652;51.526;5.080;2024-03-22T01:56:45;38.00;;;16.63;;
75073;SDS011;63652;51.526;5.080;2024-03-22T01:59:11;31.15;;;13.95;;
75073;SDS011;63652;51.526;5.080;2024-03-22T02:01:37;40.28;;;16.58;;
75073;SDS011;63652;51.526;5.080;2024-03-22T02:04:02;42.33;;;20.13;;
75073;SDS011;63652;51.526;5.080;2024-03-22T02:06:28;38.60;;;16.80;;
75073;SDS011;63652;51.526;5.080;2024-03-22T02:08:56;40.80;;;16.60;;
75073;SDS011;63652;51.526;5.080;2024-03-22T02:11:22;37.85;;;15.93;;
75073;SDS011;63652;51.526;5.080;2024-03-22T02:13:47;38.05;;;16.30;;
75073;SDS011;63652;51.526;5.080;2024-03-22T02:16:13;40.75;;;17.08;;
75073;SDS011;63652;51.526;5.080;2024-03-22T02:18:38;46.55;;;17.70;;
75073;SDS011;63652;51.526;5.080;2024-03-22T02:21:04;41.30;;;16.58;;
75073;SDS011;63652;51.526;5.080;2024-03-22T02:23:33;38.25;;;17.85;;
75073;SDS011;63652;51.526;5.080;2024-03-22T02:25:58;37.65;;;16.40;;
75073;SDS011;63652;51.526;5.080;2024-03-22T02:28:24;37.15;;;16.13;;
75073;SDS011;63652;51.526;5.080;2024-03-22T02:30:50;38.58;;;16.58;;
75073;SDS011;63652;51.526;5.080;2024-03-22T02:33:15;38.22;;;16.67;;
75073;SDS011;63652;51.526;5.080;2024-03-22T02:35:40;41.13;;;17.73;;
75073;SDS011;63652;51.526;5.080;2024-03-22T02:38:06;44.63;;;18.45;;
75073;SDS011;63652;51.526;5.080;2024-03-22T02:40:31;40.75;;;16.15;;
75073;SDS011;63652;51.526;5.080;2024-03-22T02:42:56;39.40;;;15.93;;
75073;SDS011;63652;51.526;5.080;2024-03-22T02:45:22;41.17;;;16.23;;
75073;SDS011;63652;51.526;5.080;2024-03-22T02:47:47;43.22;;;16.02;;
75073;SDS011;63652;51.526;5.080;2024-03-22T02:50:13;36.50;;;16.00;;
75073;SDS011;63652;51.526;5.080;2024-03-22T02:52:38;39.67;;;16.92;;
75073;SDS011;63652;51.526;5.080;2024-03-22T02:55:04;39.53;;;18.13;;
75073;SDS011;63652;51.526;5.080;2024-03-22T02:57:29;35.70;;;14.93;;
75073;SDS011;63652;51.526;5.080;2024-03-22T02:59:55;36.47;;;17.42;;
75073;SDS011;63652;51.526;5.080;2024-03-22T03:02:20;38.40;;;17.02;;
75073;SDS011;63652;51.526;5.080;2024-03-22T03:04:45;35.38;;;14.80;;
75073;SDS011;63652;51.526;5.080;2024-03-22T03:07:11;34.67;;;15.02;;
75073;SDS011;63652;51.526;5.080;2024-03-22T03:09:36;38.63;;;15.60;;
75073;SDS011;63652;51.526;5.080;2024-03-22T03:12:04;34.90;;;14.43;;
75073;SDS011;63652;51.526;5.080;2024-03-22T03:14:29;36.95;;;15.45;;
75073;SDS011;63652;51.526;5.080;2024-03-22T03:16:55;37.55;;;16.42;;
75073;SDS011;63652;51.526;5.080;2024-03-22T03:19:20;33.17;;;16.00;;
75073;SDS011;63652;51.526;5.080;2024-03-22T03:21:46;36.30;;;15.70;;
75073;SDS011;63652;51.526;5.080;2024-03-22T03:24:11;37.58;;;15.68;;
75073;SDS011;63652;51.526;5.080;2024-03-22T03:26:37;36.35;;;15.77;;
75073;SDS011;63652;51.526;5.080;2024-03-22T03:29:02;37.63;;;15.50;;
75073;SDS011;63652;51.526;5.080;2024-03-22T03:31:27;34.55;;;15.88;;
75073;SDS011;63652;51.526;5.080;2024-03-22T03:33:53;40.70;;;16.10;;
75073;SDS011;63652;51.526;5.080;2024-03-22T03:36:18;34.75;;;14.98;;
75073;SDS011;63652;51.526;5.080;2024-03-22T03:38:44;37.35;;;14.63;;
75073;SDS011;63652;51.526;5.080;2024-03-22T03:41:09;36.78;;;16.55;;
75073;SDS011;63652;51.526;5.080;2024-03-22T03:43:34;31.77;;;14.70;;
75073;SDS011;63652;51.526;5.080;2024-03-22T03:46:00;39.80;;;16.17;;
75073;SDS011;63652;51.526;5.080;2024-03-22T03:48:25;35.30;;;14.80;;
75073;SDS011;63652;51.526;5.080;2024-03-22T03:50:54;39.60;;;15.15;;
75073;SDS011;63652;51.526;5.080;2024-03-22T03:53:20;37.45;;;15.73;;
75073;SDS011;63652;51.526;5.080;2024-03-22T03:55:46;39.63;;;16.35;;
75073;SDS011;63652;51.526;5.080;2024-03-22T03:58:12;36.28;;;15.75;;
75073;SDS011;63652;51.526;5.080;2024-03-22T04:00:37;34.75;;;15.27;;
75073;SDS011;63652;51.526;5.080;2024-03-22T04:03:03;37.00;;;16.70;;
75073;SDS011;63652;51.526;5.080;2024-03-22T04:05:28;33.75;;;15.35;;
75073;SDS011;63652;51.526;5.080;2024-03-22T04:07:53;40.13;;;15.70;;
75073;SDS011;63652;51.526;5.080;2024-03-22T04:10:19;31.58;;;14.27;;
75073;SDS011;63652;51.526;5.080;2024-03-22T04:12:44;34.33;;;16.35;;
75073;SDS011;63652;51.526;5.080;2024-03-22T04:15:10;31.05;;;15.40;;
75073;SDS011;63652;51.526;5.080;2024-03-22T04:17:35;34.15;;;15.75;;
75073;SDS011;63652;51.526;5.080;2024-03-22T04:20:01;32.20;;;13.50;;
75073;SDS011;63652;51.526;5.080;2024-03-22T04:22:27;33.45;;;13.40;;
75073;SDS011;63652;51.526;5.080;2024-03-22T04:24:52;35.53;;;14.77;;
75073;SDS011;63652;51.526;5.080;2024-03-22T04:27:18;35.40;;;14.18;;
75073;SDS011;63652;51.526;5.080;2024-03-22T04:29:46;29.83;;;14.38;;
75073;SDS011;63652;51.526;5.080;2024-03-22T04:32:12;27.92;;;13.20;;
75073;SDS011;63652;51.526;5.080;2024-03-22T04:34:41;29.77;;;13.50;;
75073;SDS011;63652;51.526;5.080;2024-03-22T04:37:07;30.83;;;13.38;;
75073;SDS011;63652;51.526;5.080;2024-03-22T04:39:32;29.85;;;13.15;;
75073;SDS011;63652;51.526;5.080;2024-03-22T04:41:58;26.65;;;12.90;;
75073;SDS011;63652;51.526;5.080;2024-03-22T04:44:23;25.20;;;11.52;;
75073;SDS011;63652;51.526;5.080;2024-03-22T04:46:50;26.80;;;11.77;;
75073;SDS011;63652;51.526;5.080;2024-03-22T04:49:15;24.90;;;12.30;;
75073;SDS011;63652;51.526;5.080;2024-03-22T04:51:41;30.90;;;13.23;;
75073;SDS011;63652;51.526;5.080;2024-03-22T04:54:06;33.58;;;12.38;;
75073;SDS011;63652;51.526;5.080;2024-03-22T04:56:32;26.63;;;11.10;;
75073;SDS011;63652;51.526;5.080;2024-03-22T04:58:57;28.73;;;11.30;;
75073;SDS011;63652;51.526;5.080;2024-03-22T05:01:22;24.55;;;10.85;;
75073;SDS011;63652;51.526;5.080;2024-03-22T05:03:49;26.77;;;11.70;;
75073;SDS011;63652;51.526;5.080;2024-03-22T05:06:15;28.08;;;11.43;;
75073;SDS011;63652;51.526;5.080;2024-03-22T05:08:40;22.55;;;10.85;;
75073;SDS011;63652;51.526;5.080;2024-03-22T05:11:09;27.85;;;11.13;;
75073;SDS011;63652;51.526;5.080;2024-03-22T05:13:35;24.40;;;11.02;;
75073;SDS011;63652;51.526;5.080;2024-03-22T05:16:01;25.02;;;10.93;;
75073;SDS011;63652;51.526;5.080;2024-03-22T05:18:26;25.27;;;10.85;;
75073;SDS011;63652;51.526;5.080;2024-03-22T05:20:52;28.58;;;10.90;;
75073;SDS011;63652;51.526;5.080;2024-03-22T05:23:17;22.13;;;9.63;;
75073;SDS011;63652;51.526;5.080;2024-03-22T05:25:43;28.02;;;10.23;;
75073;SDS011;63652;51.526;5.080;2024-03-22T05:28:08;28.23;;;10.80;;
75073;SDS011;63652;51.526;5.080;2024-03-22T05:30:34;23.85;;;10.32;;
75073;SDS011;63652;51.526;5.080;2024-03-22T05:32:59;27.55;;;11.88;;
75073;SDS011;63652;51.526;5.080;2024-03-22T05:35:24;33.10;;;13.05;;
75073;SDS011;63652;51.526;5.080;2024-03-22T05:37:50;28.27;;;12.15;;
75073;SDS011;63652;51.526;5.080;2024-03-22T05:40:15;29.73;;;11.73;;
75073;SDS011;63652;51.526;5.080;2024-03-22T05:42:41;25.35;;;10.43;;
75073;SDS011;63652;51.526;5.080;2024-03-22T05:45:07;28.73;;;11.45;;
75073;SDS011;63652;51.526;5.080;2024-03-22T05:47:33;20.42;;;9.38;;
75073;SDS011;63652;51.526;5.080;2024-03-22T05:49:58;28.90;;;11.63;;
75073;SDS011;63652;51.526;5.080;2024-03-22T05:52:24;25.80;;;10.63;;
75073;SDS011;63652;51.526;5.080;2024-03-22T05:54:50;25.63;;;11.13;;
75073;SDS011;63652;51.526;5.080;2024-03-22T05:57:16;23.15;;;9.63;;
75073;SDS011;63652;51.526;5.080;2024-03-22T05:59:41;23.10;;;9.98;;
75073;SDS011;63652;51.526;5.080;2024-03-22T06:02:07;21.83;;;9.93;;
75073;SDS011;63652;51.526;5.080;2024-03-22T06:04:33;26.83;;;9.88;;
75073;SDS011;63652;51.526;5.080;2024-03-22T06:06:59;23.85;;;9.85;;
75073;SDS011;63652;51.526;5.080;2024-03-22T06:09:26;24.27;;;10.93;;
75073;SDS011;63652;51.526;5.080;2024-03-22T06:12:11;18.90;;;8.50;;
75073;SDS011;63652;51.526;5.080;2024-03-22T06:14:42;22.23;;;9.02;;
75073;SDS011;63652;51.526;5.080;2024-03-22T06:17:08;20.58;;;9.15;;
75073;SDS011;63652;51.526;5.080;2024-03-22T06:19:34;24.67;;;9.35;;
75073;SDS011;63652;51.526;5.080;2024-03-22T06:22:00;19.95;;;9.13;;
75073;SDS011;63652;51.526;5.080;2024-03-22T06:24:26;25.48;;;11.02;;
75073;SDS011;63652;51.526;5.080;2024-03-22T06:26:51;25.15;;;9.80;;
75073;SDS011;63652;51.526;5.080;2024-03-22T06:29:17;22.48;;;10.50;;
75073;SDS011;63652;51.526;5.080;2024-03-22T06:31:42;20.17;;;9.73;;
75073;SDS011;63652;51.526;5.080;2024-03-22T06:34:08;19.38;;;8.52;;
75073;SDS011;63652;51.526;5.080;2024-03-22T06:36:33;27.65;;;11.43;;
75073;SDS011;63652;51.526;5.080;2024-03-22T06:38:59;20.48;;;9.45;;
75073;SDS011;63652;51.526;5.080;2024-03-22T06:41:24;27.98;;;11.38;;
75073;SDS011;63652;51.526;5.080;2024-03-22T06:43:51;22.35;;;10.02;;
75073;SDS011;63652;51.526;5.080;2024-03-22T06:46:16;24.30;;;10.60;;
75073;SDS011;63652;51.526;5.080;2024-03-22T06:48:41;21.45;;;8.25;;
75073;SDS011;63652;51.526;5.080;2024-03-22T06:51:07;23.95;;;9.55;;
75073;SDS011;63652;51.526;5.080;2024-03-22T06:53:32;28.17;;;12.00;;
75073;SDS011;63652;51.526;5.080;2024-03-22T06:55:58;25.23;;;11.13;;
75073;SDS011;63652;51.526;5.080;2024-03-22T06:58:23;21.17;;;9.63;;
75073;SDS011;63652;51.526;5.080;2024-03-22T07:00:52;24.00;;;10.32;;
75073;SDS011;63652;51.526;5.080;2024-03-22T07:03:17;23.80;;;10.52;;
75073;SDS011;63652;51.526;5.080;2024-03-22T07:05:43;22.67;;;10.15;;
75073;SDS011;63652;51.526;5.080;2024-03-22T07:08:08;27.35;;;10.55;;
75073;SDS011;63652;51.526;5.080;2024-03-22T07:10:34;20.30;;;10.00;;
75073;SDS011;63652;51.526;5.080;2024-03-22T07:13:00;26.45;;;11.20;;
75073;SDS011;63652;51.526;5.080;2024-03-22T07:15:26;27.48;;;11.65;;
75073;SDS011;63652;51.526;5.080;2024-03-22T07:17:51;26.77;;;10.73;;
75073;SDS011;63652;51.526;5.080;2024-03-22T07:20:17;24.52;;;10.68;;
75073;SDS011;63652;51.526;5.080;2024-03-22T07:22:43;25.73;;;10.85;;
75073;SDS011;63652;51.526;5.080;2024-03-22T07:25:09;28.13;;;12.57;;
75073;SDS011;63652;51.526;5.080;2024-03-22T07:27:35;24.75;;;9.98;;
75073;SDS011;63652;51.526;5.080;2024-03-22T07:30:03;26.73;;;12.57;;
75073;SDS011;63652;51.526;5.080;2024-03-22T07:32:30;28.60;;;12.68;;
75073;SDS011;63652;51.526;5.080;2024-03-22T07:34:55;26.50;;;10.93;;
75073;SDS011;63652;51.526;5.080;2024-03-22T07:37:21;25.52;;;12.05;;
75073;SDS011;63652;51.526;5.080;2024-03-22T07:39:46;25.17;;;10.57;;
75073;SDS011;63652;51.526;5.080;2024-03-22T07:42:12;26.85;;;11.15;;
75073;SDS011;63652;51.526;5.080;2024-03-22T07:44:37;26.27;;;12.48;;
75073;SDS011;63652;51.526;5.080;2024-03-22T07:47:05;27.30;;;11.63;;
75073;SDS011;63652;51.526;5.080;2024-03-22T07:49:30;24.80;;;11.80;;
75073;SDS011;63652;51.526;5.080;2024-03-22T07:51:56;24.15;;;9.80;;
75073;SDS011;63652;51.526;5.080;2024-03-22T07:54:22;22.88;;;11.82;;
75073;SDS011;63652;51.526;5.080;2024-03-22T07:56:47;29.10;;;11.52;;
75073;SDS011;63652;51.526;5.080;2024-03-22T07:59:12;27.33;;;13.40;;
75073;SDS011;63652;51.526;5.080;2024-03-22T08:01:38;26.35;;;11.95;;
75073;SDS011;63652;51.526;5.080;2024-03-22T08:04:07;25.05;;;11.63;;
75073;SDS011;63652;51.526;5.080;2024-03-22T08:06:33;25.38;;;12.18;;
75073;SDS011;63652;51.526;5.080;2024-03-22T08:08:58;28.65;;;12.73;;
75073;SDS011;63652;51.526;5.080;2024-03-22T08:11:24;29.35;;;12.27;;
75073;SDS011;63652;51.526;5.080;2024-03-22T08:13:49;26.83;;;12.32;;
75073;SDS011;63652;51.526;5.080;2024-03-22T08:16:14;29.05;;;11.80;;
75073;SDS011;63652;51.526;5.080;2024-03-22T08:18:40;28.15;;;13.10;;
75073;SDS011;63652;51.526;5.080;2024-03-22T08:21:11;28.25;;;11.90;;
75073;SDS011;63652;51.526;5.080;2024-03-22T08:23:42;24.63;;;11.43;;
75073;SDS011;63652;51.526;5.080;2024-03-22T08:26:08;24.88;;;10.52;;
75073;SDS011;63652;51.526;5.080;2024-03-22T08:28:36;22.90;;;10.68;;
75073;SDS011;63652;51.526;5.080;2024-03-22T08:31:04;21.60;;;10.02;;
75073;SDS011;63652;51.526;5.080;2024-03-22T08:33:32;24.67;;;10.82;;
75073;SDS011;63652;51.526;5.080;2024-03-22T08:35:58;22.70;;;10.40;;
75073;SDS011;63652;51.526;5.080;2024-03-22T08:38:23;22.17;;;11.35;;
75073;SDS011;63652;51.526;5.080;2024-03-22T08:40:49;20.85;;;9.27;;
75073;SDS011;63652;51.526;5.080;2024-03-22T08:43:15;23.08;;;8.80;;
75073;SDS011;63652;51.526;5.080;2024-03-22T08:45:41;19.08;;;8.57;;
75073;SDS011;63652;51.526;5.080;2024-03-22T08:48:06;24.33;;;11.10;;
75073;SDS011;63652;51.526;5.080;2024-03-22T08:50:32;20.02;;;9.50;;
75073;SDS011;63652;51.526;5.080;2024-03-22T08:52:58;20.58;;;9.02;;
75073;SDS011;63652;51.526;5.080;2024-03-22T08:55:24;15.73;;;8.35;;
75073;SDS011;63652;51.526;5.080;2024-03-22T08:57:49;18.88;;;9.52;;
75073;SDS011;63652;51.526;5.080;2024-03-22T09:00:15;16.35;;;8.32;;
75073;SDS011;63652;51.526;5.080;2024-03-22T09:02:40;20.42;;;8.82;;
75073;SDS011;63652;51.526;5.080;2024-03-22T09:05:06;18.40;;;9.13;;
75073;SDS011;63652;51.526;5.080;2024-03-22T09:07:41;18.48;;;8.75;;
75073;SDS011;63652;51.526;5.080;2024-03-22T09:10:07;17.50;;;6.93;;
75073;SDS011;63652;51.526;5.080;2024-03-22T09:12:33;17.23;;;7.90;;
75073;SDS011;63652;51.526;5.080;2024-03-22T09:14:58;16.20;;;7.95;;
75073;SDS011;63652;51.526;5.080;2024-03-22T09:17:23;17.67;;;8.20;;
75073;SDS011;63652;51.526;5.080;2024-03-22T09:19:49;21.25;;;8.00;;
75073;SDS011;63652;51.526;5.080;2024-03-22T09:22:14;18.88;;;8.93;;
75073;SDS011;63652;51.526;5.080;2024-03-22T09:24:40;15.43;;;7.40;;
75073;SDS011;63652;51.526;5.080;2024-03-22T09:27:06;15.82;;;7.43;;
75073;SDS011;63652;51.526;5.080;2024-03-22T09:29:35;15.68;;;8.10;;
75073;SDS011;63652;51.526;5.080;2024-03-22T09:32:03;13.90;;;7.30;;
75073;SDS011;63652;51.526;5.080;2024-03-22T09:34:29;14.05;;;6.88;;
75073;SDS011;63652;51.526;5.080;2024-03-22T09:36:54;14.55;;;7.15;;
75073;SDS011;63652;51.526;5.080;2024-03-22T09:39:23;15.13;;;7.20;;
75073;SDS011;63652;51.526;5.080;2024-03-22T09:41:51;12.55;;;6.82;;
75073;SDS011;63652;51.526;5.080;2024-03-22T09:44:20;17.73;;;8.55;;
75073;SDS011;63652;51.526;5.080;2024-03-22T09:46:46;16.33;;;7.30;;
75073;SDS011;63652;51.526;5.080;2024-03-22T09:49:12;17.02;;;6.65;;
75073;SDS011;63652;51.526;5.080;2024-03-22T09:51:39;15.55;;;7.70;;
75073;SDS011;63652;51.526;5.080;2024-03-22T09:54:04;13.43;;;6.32;;
75073;SDS011;63652;51.526;5.080;2024-03-22T09:56:30;14.88;;;5.90;;
75073;SDS011;63652;51.526;5.080;2024-03-22T09:58:56;15.07;;;6.47;;
75073;SDS011;63652;51.526;5.080;2024-03-22T10:01:23;15.40;;;6.80;;
75073;SDS011;63652;51.526;5.080;2024-03-22T10:03:49;13.05;;;6.35;;
75073;SDS011;63652;51.526;5.080;2024-03-22T10:06:16;20.98;;;7.13;;
75073;SDS011;63652;51.526;5.080;2024-03-22T10:08:42;14.60;;;7.30;;
75073;SDS011;63652;51.526;5.080;2024-03-22T10:11:07;14.02;;;6.72;;
75073;SDS011;63652;51.526;5.080;2024-03-22T10:13:33;12.10;;;7.03;;
75073;SDS011;63652;51.526;5.080;2024-03-22T10:15:58;14.02;;;6.70;;
75073;SDS011;63652;51.526;5.080;2024-03-22T10:18:24;14.50;;;7.18;;
75073;SDS011;63652;51.526;5.080;2024-03-22T10:21:02;16.90;;;7.53;;
75073;SDS011;63652;51.526;5.080;2024-03-22T10:23:29;21.65;;;7.55;;
75073;SDS011;63652;51.526;5.080;2024-03-22T10:25:58;16.95;;;8.25;;
75073;SDS011;63652;51.526;5.080;2024-03-22T10:28:24;12.93;;;7.03;;
75073;SDS011;63652;51.526;5.080;2024-03-22T10:30:52;16.55;;;7.63;;
75073;SDS011;63652;51.526;5.080;2024-03-22T10:33:19;13.23;;;6.53;;
75073;SDS011;63652;51.526;5.080;2024-03-22T10:35:45;12.85;;;6.07;;
75073;SDS011;63652;51.526;5.080;2024-03-22T10:38:12;15.38;;;6.78;;
75073;SDS011;63652;51.526;5.080;2024-03-22T10:40:38;15.40;;;6.68;;
75073;SDS011;63652;51.526;5.080;2024-03-22T10:43:05;18.95;;;6.95;;
75073;SDS011;63652;51.526;5.080;2024-03-22T10:45:31;16.05;;;6.47;;
75073;SDS011;63652;51.526;5.080;2024-03-22T10:47:56;20.60;;;7.40;;
75073;SDS011;63652;51.526;5.080;2024-03-22T10:50:22;14.57;;;6.22;;
75073;SDS011;63652;51.526;5.080;2024-03-22T10:52:51;15.38;;;7.07;;
75073;SDS011;63652;51.526;5.080;2024-03-22T10:55:28;14.43;;;6.40;;
75073;SDS011;63652;51.526;5.080;2024-03-22T10:57:57;17.63;;;6.10;;
75073;SDS011;63652;51.526;5.080;2024-03-22T11:00:29;17.85;;;8.52;;
75073;SDS011;63652;51.526;5.080;2024-03-22T11:02:55;16.80;;;7.22;;
75073;SDS011;63652;51.526;5.080;2024-03-22T11:05:21;17.88;;;6.75;;
75073;SDS011;63652;51.526;5.080;2024-03-22T11:07:47;15.68;;;7.22;;
75073;SDS011;63652;51.526;5.080;2024-03-22T11:10:13;17.77;;;7.22;;
75073;SDS011;63652;51.526;5.080;2024-03-22T11:12:41;18.75;;;7.47;;
75073;SDS011;63652;51.526;5.080;2024-03-22T11:15:08;16.52;;;6.93;;
75073;SDS011;63652;51.526;5.080;2024-03-22T11:17:40;19.13;;;7.32;;
75073;SDS011;63652;51.526;5.080;2024-03-22T11:20:06;17.38;;;7.90;;
75073;SDS011;63652;51.526;5.080;2024-03-22T11:22:36;17.00;;;7.80;;
75073;SDS011;63652;51.526;5.080;2024-03-22T11:25:02;18.77;;;7.22;;
75073;SDS011;63652;51.526;5.080;2024-03-22T11:27:28;14.32;;;6.90;;
75073;SDS011;63652;51.526;5.080;2024-03-22T11:29:53;17.80;;;7.00;;
75073;SDS011;63652;51.526;5.080;2024-03-22T11:32:19;16.25;;;6.80;;
75073;SDS011;63652;51.526;5.080;2024-03-22T11:34:45;15.25;;;7.38;;
75073;SDS011;63652;51.526;5.080;2024-03-22T11:37:11;16.45;;;6.95;;
75073;SDS011;63652;51.526;5.080;2024-03-22T11:39:37;14.00;;;6.15;;
75073;SDS011;63652;51.526;5.080;2024-03-22T11:42:07;15.63;;;7.15;;
75073;SDS011;63652;51.526;5.080;2024-03-22T11:44:36;13.48;;;5.78;;
75073;SDS011;63652;51.526;5.080;2024-03-22T11:47:03;18.75;;;6.90;;
75073;SDS011;63652;51.526;5.080;2024-03-22T11:49:29;17.00;;;7.18;;
75073;SDS011;63652;51.526;5.080;2024-03-22T11:51:55;16.50;;;6.50;;
75073;SDS011;63652;51.526;5.080;2024-03-22T11:54:22;15.23;;;6.68;;
75073;SDS011;63652;51.526;5.080;2024-03-22T11:56:51;14.27;;;6.35;;
75073;SDS011;63652;51.526;5.080;2024-03-22T11:59:19;17.40;;;6.70;;
75073;SDS011;63652;51.526;5.080;2024-03-22T12:01:47;11.93;;;6.13;;
75073;SDS011;63652;51.526;5.080;2024-03-22T12:04:12;14.93;;;6.68;;
75073;SDS011;63652;51.526;5.080;2024-03-22T12:06:44;15.15;;;6.80;;
75073;SDS011;63652;51.526;5.080;2024-03-22T12:09:09;12.60;;;6.50;;
75073;SDS011;63652;51.526;5.080;2024-03-22T12:11:38;14.50;;;6.95;;
75073;SDS011;63652;51.526;5.080;2024-03-22T12:14:03;14.27;;;6.50;;
75073;SDS011;63652;51.526;5.080;2024-03-22T12:16:29;14.52;;;6.35;;
75073;SDS011;63652;51.526;5.080;2024-03-22T12:18:55;14.38;;;6.32;;
75073;SDS011;63652;51.526;5.080;2024-03-22T12:21:20;20.33;;;6.78;;
75073;SDS011;63652;51.526;5.080;2024-03-22T12:23:46;18.67;;;6.25;;
75073;SDS011;63652;51.526;5.080;2024-03-22T12:26:11;15.05;;;6.78;;
75073;SDS011;63652;51.526;5.080;2024-03-22T12:28:37;14.20;;;7.07;;
75073;SDS011;63652;51.526;5.080;2024-03-22T12:31:03;12.35;;;6.75;;
75073;SDS011;63652;51.526;5.080;2024-03-22T12:33:29;16.25;;;6.82;;
75073;SDS011;63652;51.526;5.080;2024-03-22T12:35:54;17.85;;;6.57;;
75073;SDS011;63652;51.526;5.080;2024-03-22T12:38:20;15.95;;;6.30;;
75073;SDS011;63652;51.526;5.080;2024-03-22T12:40:45;14.75;;;5.80;;
75073;SDS011;63652;51.526;5.080;2024-03-22T12:43:11;16.80;;;6.50;;
75073;SDS011;63652;51.526;5.080;2024-03-22T12:45:39;14.82;;;6.80;;
75073;SDS011;63652;51.526;5.080;2024-03-22T12:48:04;12.85;;;6.53;;
75073;SDS011;63652;51.526;5.080;2024-03-22T12:50:30;16.80;;;6.97;;
75073;SDS011;63652;51.526;5.080;2024-03-22T12:52:55;12.98;;;6.18;;
75073;SDS011;63652;51.526;5.080;2024-03-22T12:55:21;12.65;;;5.80;;
75073;SDS011;63652;51.526;5.080;2024-03-22T12:57:46;15.93;;;6.15;;
75073;SDS011;63652;51.526;5.080;2024-03-22T13:00:12;14.82;;;5.93;;
75073;SDS011;63652;51.526;5.080;2024-03-22T13:02:41;13.05;;;6.95;;
75073;SDS011;63652;51.526;5.080;2024-03-22T13:05:06;12.55;;;5.70;;
75073;SDS011;63652;51.526;5.080;2024-03-22T13:07:33;11.75;;;4.78;;
75073;SDS011;63652;51.526;5.080;2024-03-22T13:09:58;10.68;;;5.38;;
75073;SDS011;63652;51.526;5.080;2024-03-22T13:12:25;15.73;;;7.00;;
75073;SDS011;63652;51.526;5.080;2024-03-22T13:14:51;13.88;;;5.88;;
75073;SDS011;63652;51.526;5.080;2024-03-22T13:17:17;10.07;;;5.88;;
75073;SDS011;63652;51.526;5.080;2024-03-22T13:19:42;13.30;;;6.40;;
75073;SDS011;63652;51.526;5.080;2024-03-22T13:22:07;13.43;;;7.25;;
75073;SDS011;63652;51.526;5.080;2024-03-22T13:24:38;14.43;;;6.75;;
75073;SDS011;63652;51.526;5.080;2024-03-22T13:27:03;11.52;;;6.40;;
75073;SDS011;63652;51.526;5.080;2024-03-22T13:29:29;12.07;;;5.57;;
75073;SDS011;63652;51.526;5.080;2024-03-22T13:31:54;16.00;;;6.03;;
75073;SDS011;63652;51.526;5.080;2024-03-22T13:34:20;9.73;;;4.88;;
75073;SDS011;63652;51.526;5.080;2024-03-22T13:36:45;11.20;;;4.85;;
75073;SDS011;63652;51.526;5.080;2024-03-22T13:39:11;11.32;;;4.40;;
75073;SDS011;63652;51.526;5.080;2024-03-22T13:41:40;12.02;;;5.35;;
75073;SDS011;63652;51.526;5.080;2024-03-22T13:44:09;10.93;;;4.90;;
75073;SDS011;63652;51.526;5.080;2024-03-22T13:46:34;11.13;;;5.72;;
75073;SDS011;63652;51.526;5.080;2024-03-22T13:49:12;9.77;;;5.35;;
75073;SDS011;63652;51.526;5.080;2024-03-22T13:51:39;11.10;;;4.93;;
75073;SDS011;63652;51.526;5.080;2024-03-22T13:54:04;12.30;;;5.15;;
75073;SDS011;63652;51.526;5.080;2024-03-22T13:56:33;13.02;;;5.80;;
75073;SDS011;63652;51.526;5.080;2024-03-22T13:58:58;11.00;;;5.88;;
75073;SDS011;63652;51.526;5.080;2024-03-22T14:01:26;11.82;;;5.38;;
75073;SDS011;63652;51.526;5.080;2024-03-22T14:03:52;11.73;;;5.40;;
75073;SDS011;63652;51.526;5.080;2024-03-22T14:06:17;9.35;;;5.10;;
75073;SDS011;63652;51.526;5.080;2024-03-22T14:08:43;11.70;;;5.68;;
75073;SDS011;63652;51.526;5.080;2024-03-22T14:11:08;9.43;;;5.20;;
75073;SDS011;63652;51.526;5.080;2024-03-22T14:13:34;10.90;;;6.20;;
75073;SDS011;63652;51.526;5.080;2024-03-22T14:15:59;10.32;;;5.57;;
75073;SDS011;63652;51.526;5.080;2024-03-22T14:18:24;8.73;;;4.82;;
75073;SDS011;63652;51.526;5.080;2024-03-22T14:20:50;9.75;;;4.60;;